sensor_id;sensor_type;location;lat;lon;timestamp;pressure;altitude;pressure_sealevel;temperature;humidity
54455;BME280;40364;52.270;10.546;2023-01-28T00:00:31;101781.16;;;9.28;50.42
54455;BME280;40364;52.270;10.546;2023-01-28T00:02:58;101791.97;;;9.29;50.16
54455;BME280;40364;52.270;10.546;2023-01-28T00:05:24;101790.91;;;9.71;49.21
54455;BME280;40364;52.270;10.546;2023-01-28T00:07:51;101792.56;;;8.80;51.37
54455;BME280;40364;52.270;10.546;2023-01-28T00:10:18;101797.56;;;8.97;51.06
54455;BME280;40364;52.270;10.546;2023-01-28T00:12:44;101794.22;;;9.73;49.22
54455;BME280;40364;52.270;10.546;2023-01-28T00:15:13;101794.28;;;9.41;49.68
54455;BME280;40364;52.270;10.546;2023-01-28T00:17:39;101795.44;;;9.07;50.50
54455;BME280;40364;52.270;10.546;2023-01-28T00:20:07;101799.34;;;8.88;50.80
54455;BME280;40364;52.270;10.546;2023-01-28T00:22:34;101792.97;;;8.87;50.55
54455;BME280;40364;52.270;10.546;2023-01-28T00:25:00;101788.84;;;9.03;50.25
54455;BME280;40364;52.270;10.546;2023-01-28T00:27:27;101786.22;;;8.93;50.91
54455;BME280;40364;52.270;10.546;2023-01-28T00:29:55;101793.88;;;9.01;51.12
54455;BME280;40364;52.270;10.546;2023-01-28T00:32:23;101788.22;;;9.06;50.85
54455;BME280;40364;52.270;10.546;2023-01-28T00:34:49;101784.56;;;8.92;51.09
54455;BME280;40364;52.270;10.546;2023-01-28T00:37:16;101781.97;;;9.15;50.85
54455;BME280;40364;52.270;10.546;2023-01-28T00:39:42;101781.50;;;9.40;50.59
54455;BME280;40364;52.270;10.546;2023-01-28T00:42:09;101788.59;;;9.32;50.12
54455;BME280;40364;52.270;10.546;2023-01-28T00:44:36;101787.75;;;9.78;49.01
54455;BME280;40364;52.270;10.546;2023-01-28T00:47:03;101791.47;;;9.27;49.47
54455;BME280;40364;52.270;10.546;2023-01-28T00:49:31;101791.25;;;9.24;50.25
54455;BME280;40364;52.270;10.546;2023-01-28T00:51:57;101787.69;;;9.04;50.27
54455;BME280;40364;52.270;10.546;2023-01-28T00:54:24;101785.94;;;9.55;49.40
54455;BME280;40364;52.270;10.546;2023-01-28T00:56:51;101799.31;;;9.39;49.54
54455;BME280;40364;52.270;10.546;2023-01-28T00:59:18;101799.19;;;8.98;50.47
54455;BME280;40364;52.270;10.546;2023-01-28T01:01:44;101804.00;;;8.92;50.44
54455;BME280;40364;52.270;10.546;2023-01-28T01:04:11;101805.22;;;9.19;50.15
54455;BME280;40364;52.270;10.546;2023-01-28T01:06:39;101804.31;;;9.69;48.89
54455;BME280;40364;52.270;10.546;2023-01-28T01:09:09;101799.38;;;10.07;48.28
54455;BME280;40364;52.270;10.546;2023-01-28T01:11:37;101810.47;;;9.80;47.73
54455;BME280;40364;52.270;10.546;2023-01-28T01:14:04;101811.13;;;9.17;49.52
54455;BME280;40364;52.270;10.546;2023-01-28T01:16:32;101817.97;;;9.06;49.95
54455;BME280;40364;52.270;10.546;2023-01-28T01:19:00;101819.22;;;9.46;49.15
54455;BME280;40364;52.270;10.546;2023-01-28T01:21:28;101814.06;;;8.88;49.88
54455;BME280;40364;52.270;10.546;2023-01-28T01:23:57;101823.22;;;9.07;50.21
54455;BME280;40364;52.270;10.546;2023-01-28T01:26:24;101817.03;;;8.78;50.43
54455;BME280;40364;52.270;10.546;2023-01-28T01:28:51;101812.50;;;9.01;50.56
54455;BME280;40364;52.270;10.546;2023-01-28T01:31:19;101818.84;;;9.66;48.81
54455;BME280;40364;52.270;10.546;2023-01-28T01:33:48;101818.13;;;10.02;48.60
54455;BME280;40364;52.270;10.546;2023-01-28T01:36:16;101809.63;;;9.52;49.18
54455;BME280;40364;52.270;10.546;2023-01-28T01:38:44;101826.09;;;9.49;48.97
54455;BME280;40364;52.270;10.546;2023-01-28T01:41:22;101813.53;;;9.37;48.57
54455;BME280;40364;52.270;10.546;2023-01-28T01:43:51;101818.94;;;9.89;48.01
54455;BME280;40364;52.270;10.546;2023-01-28T01:46:21;101810.47;;;10.85;46.19
54455;BME280;40364;52.270;10.546;2023-01-28T01:48:49;101811.28;;;9.53;48.72
54455;BME280;40364;52.270;10.546;2023-01-28T01:51:18;101810.63;;;9.29;49.68
54455;BME280;40364;52.270;10.546;2023-01-28T01:53:50;101808.19;;;9.41;49.21
54455;BME280;40364;52.270;10.546;2023-01-28T01:56:22;101813.31;;;9.34;49.17
54455;BME280;40364;52.270;10.546;2023-01-28T01:58:52;101825.56;;;9.33;49.19
54455;BME280;40364;52.270;10.546;2023-01-28T02:01:22;101817.66;;;9.40;49.40
54455;BME280;40364;52.270;10.546;2023-01-28T02:03:55;101819.78;;;8.97;49.97
54455;BME280;40364;52.270;10.546;2023-01-28T02:06:25;101824.28;;;9.11;50.00
54455;BME280;40364;52.270;10.546;2023-01-28T02:08:53;101824.75;;;9.00;50.27
54455;BME280;40364;52.270;10.546;2023-01-28T02:11:24;101829.25;;;9.28;49.70
54455;BME280;40364;52.270;10.546;2023-01-28T02:13:53;101830.25;;;9.19;49.85
54455;BME280;40364;52.270;10.546;2023-01-28T02:16:22;101817.47;;;9.18;49.54
54455;BME280;40364;52.270;10.546;2023-01-28T02:18:50;101818.31;;;8.86;49.54
54455;BME280;40364;52.270;10.546;2023-01-28T02:21:40;101823.53;;;9.38;48.40
54455;BME280;40364;52.270;10.546;2023-01-28T02:24:35;101822.72;;;9.19;48.91
54455;BME280;40364;52.270;10.546;2023-01-28T02:27:19;101834.44;;;9.35;48.90
54455;BME280;40364;52.270;10.546;2023-01-28T02:29:55;101827.88;;;9.12;48.69
54455;BME280;40364;52.270;10.546;2023-01-28T02:32:30;101832.44;;;9.22;48.76
54455;BME280;40364;52.270;10.546;2023-01-28T02:35:05;101830.13;;;9.10;48.98
54455;BME280;40364;52.270;10.546;2023-01-28T02:37:49;101834.50;;;9.16;47.76
54455;BME280;40364;52.270;10.546;2023-01-28T02:40:22;101835.66;;;9.29;48.19
54455;BME280;40364;52.270;10.546;2023-01-28T02:42:52;101835.41;;;9.11;48.04
54455;BME280;40364;52.270;10.546;2023-01-28T02:45:22;101830.16;;;9.24;48.33
54455;BME280;40364;52.270;10.546;2023-01-28T02:47:49;101823.31;;;9.35;48.29
54455;BME280;40364;52.270;10.546;2023-01-28T02:50:30;101817.47;;;9.50;47.76
54455;BME280;40364;52.270;10.546;2023-01-28T02:53:10;101821.28;;;9.54;47.77
54455;BME280;40364;52.270;10.546;2023-01-28T02:56:14;101824.31;;;9.71;47.29
54455;BME280;40364;52.270;10.546;2023-01-28T02:58:47;101823.56;;;9.79;47.16
54455;BME280;40364;52.270;10.546;2023-01-28T03:01:23;101813.16;;;9.85;45.62
54455;BME280;40364;52.270;10.546;2023-01-28T03:03:57;101820.19;;;10.10;45.43
54455;BME280;40364;52.270;10.546;2023-01-28T03:06:27;101819.78;;;9.89;46.14
54455;BME280;40364;52.270;10.546;2023-01-28T03:08:58;101811.09;;;9.63;45.66
54455;BME280;40364;52.270;10.546;2023-01-28T03:11:49;101805.44;;;10.09;43.40
54455;BME280;40364;52.270;10.546;2023-01-28T03:14:34;101818.66;;;8.98;44.08
54455;BME280;40364;52.270;10.546;2023-01-28T03:17:24;101809.97;;;8.67;44.33
54455;BME280;40364;52.270;10.546;2023-01-28T03:20:11;101817.16;;;9.05;43.64
54455;BME280;40364;52.270;10.546;2023-01-28T03:22:58;101820.41;;;9.72;43.42
54455;BME280;40364;52.270;10.546;2023-01-28T03:25:45;101815.44;;;10.10;42.88
54455;BME280;40364;52.270;10.546;2023-01-28T03:28:34;101812.34;;;10.39;41.89
54455;BME280;40364;52.270;10.546;2023-01-28T03:31:19;101816.47;;;8.95;43.30
54455;BME280;40364;52.270;10.546;2023-01-28T03:34:08;101823.25;;;8.89;43.65
54455;BME280;40364;52.270;10.546;2023-01-28T03:36:53;101808.44;;;9.86;41.80
54455;BME280;40364;52.270;10.546;2023-01-28T03:39:22;101811.19;;;10.13;42.46
54455;BME280;40364;52.270;10.546;2023-01-28T03:42:02;101810.88;;;10.56;42.13
54455;BME280;40364;52.270;10.546;2023-01-28T03:44:30;101810.38;;;10.40;42.76
54455;BME280;40364;52.270;10.546;2023-01-28T03:47:16;101815.00;;;10.44;43.64
54455;BME280;40364;52.270;10.546;2023-01-28T03:49:47;101814.00;;;9.86;44.83
54455;BME280;40364;52.270;10.546;2023-01-28T03:52:15;101811.03;;;10.23;44.75
54455;BME280;40364;52.270;10.546;2023-01-28T03:54:43;101809.44;;;10.44;43.36
54455;BME280;40364;52.270;10.546;2023-01-28T03:57:12;101811.44;;;10.30;43.28
54455;BME280;40364;52.270;10.546;2023-01-28T03:59:38;101818.97;;;10.02;43.37
54455;BME280;40364;52.270;10.546;2023-01-28T04:02:06;101822.34;;;9.86;43.65
54455;BME280;40364;52.270;10.546;2023-01-28T04:04:33;101815.47;;;10.96;42.60
54455;BME280;40364;52.270;10.546;2023-01-28T04:07:01;101816.66;;;11.48;40.94
54455;BME280;40364;52.270;10.546;2023-01-28T04:09:27;101810.50;;;10.35;42.67
54455;BME280;40364;52.270;10.546;2023-01-28T04:11:54;101813.06;;;10.81;42.48
54455;BME280;40364;52.270;10.546;2023-01-28T04:14:21;101813.13;;;10.90;41.83
54455;BME280;40364;52.270;10.546;2023-01-28T04:16:47;101819.75;;;11.47;41.03
54455;BME280;40364;52.270;10.546;2023-01-28T04:19:14;101825.78;;;11.40;41.45
54455;BME280;40364;52.270;10.546;2023-01-28T04:21:41;101829.44;;;11.50;41.08
54455;BME280;40364;52.270;10.546;2023-01-28T04:24:09;101830.91;;;11.47;40.82
54455;BME280;40364;52.270;10.546;2023-01-28T04:26:36;101833.53;;;11.74;40.39
54455;BME280;40364;52.270;10.546;2023-01-28T04:29:02;101821.03;;;12.03;39.90
54455;BME280;40364;52.270;10.546;2023-01-28T04:31:29;101823.94;;;12.46;38.73
54455;BME280;40364;52.270;10.546;2023-01-28T04:33:56;101833.84;;;12.04;39.12
54455;BME280;40364;52.270;10.546;2023-01-28T04:36:23;101820.94;;;12.34;38.63
54455;BME280;40364;52.270;10.546;2023-01-28T04:38:50;101827.72;;;12.59;38.66
54455;BME280;40364;52.270;10.546;2023-01-28T04:41:18;101832.00;;;12.47;38.88
54455;BME280;40364;52.270;10.546;2023-01-28T04:43:45;101844.13;;;12.34;39.25
54455;BME280;40364;52.270;10.546;2023-01-28T04:46:13;101841.81;;;11.35;41.01
54455;BME280;40364;52.270;10.546;2023-01-28T04:48:40;101847.72;;;11.33;40.92
54455;BME280;40364;52.270;10.546;2023-01-28T04:51:07;101854.72;;;11.00;41.06
54455;BME280;40364;52.270;10.546;2023-01-28T04:53:34;101850.69;;;11.37;40.75
54455;BME280;40364;52.270;10.546;2023-01-28T04:56:00;101851.59;;;11.24;40.88
54455;BME280;40364;52.270;10.546;2023-01-28T04:58:28;101853.22;;;11.47;41.24
54455;BME280;40364;52.270;10.546;2023-01-28T05:00:56;101857.00;;;10.98;40.98
54455;BME280;40364;52.270;10.546;2023-01-28T05:03:23;101852.31;;;11.29;40.71
54455;BME280;40364;52.270;10.546;2023-01-28T05:05:50;101847.41;;;11.35;41.29
54455;BME280;40364;52.270;10.546;2023-01-28T05:08:17;101857.16;;;11.46;41.04
54455;BME280;40364;52.270;10.546;2023-01-28T05:10:44;101855.69;;;11.04;40.78
54455;BME280;40364;52.270;10.546;2023-01-28T05:13:10;101861.13;;;11.00;40.64
54455;BME280;40364;52.270;10.546;2023-01-28T05:15:38;101873.31;;;10.41;41.95
54455;BME280;40364;52.270;10.546;2023-01-28T05:18:05;101862.13;;;11.27;40.78
54455;BME280;40364;52.270;10.546;2023-01-28T05:20:32;101858.19;;;11.50;40.38
54455;BME280;40364;52.270;10.546;2023-01-28T05:22:58;101859.75;;;11.42;40.65
54455;BME280;40364;52.270;10.546;2023-01-28T05:25:25;101863.63;;;10.38;41.58
54455;BME280;40364;52.270;10.546;2023-01-28T05:27:53;101855.38;;;10.83;40.04
54455;BME280;40364;52.270;10.546;2023-01-28T05:30:20;101850.47;;;11.25;39.69
54455;BME280;40364;52.270;10.546;2023-01-28T05:32:48;101852.56;;;10.61;39.64
54455;BME280;40364;52.270;10.546;2023-01-28T05:35:15;101859.56;;;10.44;40.04
54455;BME280;40364;52.270;10.546;2023-01-28T05:37:42;101859.38;;;10.13;40.57
54455;BME280;40364;52.270;10.546;2023-01-28T05:40:09;101855.75;;;9.99;40.05
54455;BME280;40364;52.270;10.546;2023-01-28T05:42:36;101857.03;;;10.34;39.40
54455;BME280;40364;52.270;10.546;2023-01-28T05:45:03;101852.13;;;10.54;39.57
54455;BME280;40364;52.270;10.546;2023-01-28T05:47:30;101858.97;;;10.06;39.54
54455;BME280;40364;52.270;10.546;2023-01-28T05:49:58;101844.91;;;9.84;40.68
54455;BME280;40364;52.270;10.546;2023-01-28T05:52:25;101859.81;;;10.34;40.23
54455;BME280;40364;52.270;10.546;2023-01-28T05:54:51;101848.84;;;9.83;41.25
54455;BME280;40364;52.270;10.546;2023-01-28T05:57:18;101862.63;;;9.61;42.05
54455;BME280;40364;52.270;10.546;2023-01-28T05:59:45;101860.19;;;9.73;41.48
54455;BME280;40364;52.270;10.546;2023-01-28T06:02:11;101859.09;;;9.55;42.07
54455;BME280;40364;52.270;10.546;2023-01-28T06:04:38;101847.19;;;9.68;41.68
54455;BME280;40364;52.270;10.546;2023-01-28T06:07:06;101859.56;;;9.90;41.39
54455;BME280;40364;52.270;10.546;2023-01-28T06:09:33;101856.47;;;9.91;41.64
54455;BME280;40364;52.270;10.546;2023-01-28T06:11:59;101853.28;;;10.11;41.50
54455;BME280;40364;52.270;10.546;2023-01-28T06:14:26;101855.88;;;10.08;41.96
54455;BME280;40364;52.270;10.546;2023-01-28T06:16:53;101857.13;;;10.02;41.65
54455;BME280;40364;52.270;10.546;2023-01-28T06:19:19;101850.09;;;10.04;41.78
54455;BME280;40364;52.270;10.546;2023-01-28T06:21:46;101863.56;;;9.70;41.85
54455;BME280;40364;52.270;10.546;2023-01-28T06:24:14;101859.91;;;8.72;43.22
54455;BME280;40364;52.270;10.546;2023-01-28T06:26:41;101858.66;;;9.48;41.98
54455;BME280;40364;52.270;10.546;2023-01-28T06:29:07;101860.53;;;9.53;41.74
54455;BME280;40364;52.270;10.546;2023-01-28T06:31:34;101858.84;;;9.84;41.46
54455;BME280;40364;52.270;10.546;2023-01-28T06:34:01;101866.13;;;9.66;42.78
54455;BME280;40364;52.270;10.546;2023-01-28T06:36:27;101863.84;;;9.55;43.14
54455;BME280;40364;52.270;10.546;2023-01-28T06:38:54;101874.00;;;9.92;42.72
54455;BME280;40364;52.270;10.546;2023-01-28T06:41:23;101865.78;;;10.91;40.91
54455;BME280;40364;52.270;10.546;2023-01-28T06:43:49;101872.50;;;10.90;40.75
54455;BME280;40364;52.270;10.546;2023-01-28T06:46:16;101863.84;;;10.78;40.46
54455;BME280;40364;52.270;10.546;2023-01-28T06:48:42;101869.19;;;10.88;38.93
54455;BME280;40364;52.270;10.546;2023-01-28T06:51:09;101868.41;;;10.74;39.26
54455;BME280;40364;52.270;10.546;2023-01-28T06:53:36;101870.09;;;10.97;39.24
54455;BME280;40364;52.270;10.546;2023-01-28T06:56:03;101871.75;;;11.21;39.11
54455;BME280;40364;52.270;10.546;2023-01-28T06:58:31;101868.63;;;11.89;38.96
54455;BME280;40364;52.270;10.546;2023-01-28T07:00:57;101859.72;;;11.65;38.86
54455;BME280;40364;52.270;10.546;2023-01-28T07:03:24;101858.97;;;11.20;39.12
54455;BME280;40364;52.270;10.546;2023-01-28T07:05:51;101871.53;;;11.31;38.84
54455;BME280;40364;52.270;10.546;2023-01-28T07:08:18;101874.44;;;11.26;38.84
54455;BME280;40364;52.270;10.546;2023-01-28T07:10:44;101864.00;;;11.40;38.83
54455;BME280;40364;52.270;10.546;2023-01-28T07:13:11;101866.28;;;11.38;37.80
54455;BME280;40364;52.270;10.546;2023-01-28T07:15:39;101879.41;;;11.37;38.63
54455;BME280;40364;52.270;10.546;2023-01-28T07:18:06;101886.50;;;10.49;39.60
54455;BME280;40364;52.270;10.546;2023-01-28T07:20:32;101879.69;;;10.69;39.08
54455;BME280;40364;52.270;10.546;2023-01-28T07:22:59;101879.53;;;10.74;38.92
54455;BME280;40364;52.270;10.546;2023-01-28T07:25:26;101887.66;;;10.21;40.80
54455;BME280;40364;52.270;10.546;2023-01-28T07:27:52;101894.88;;;10.35;41.03
54455;BME280;40364;52.270;10.546;2023-01-28T07:30:20;101890.31;;;9.98;40.88
54455;BME280;40364;52.270;10.546;2023-01-28T07:32:53;101883.53;;;10.32;39.68
54455;BME280;40364;52.270;10.546;2023-01-28T07:35:20;101883.34;;;10.28;39.59
54455;BME280;40364;52.270;10.546;2023-01-28T07:37:50;101884.41;;;9.40;40.61
54455;BME280;40364;52.270;10.546;2023-01-28T07:40:17;101892.13;;;9.75;40.66
54455;BME280;40364;52.270;10.546;2023-01-28T07:42:44;101886.97;;;9.83;40.47
54455;BME280;40364;52.270;10.546;2023-01-28T07:45:11;101883.53;;;9.26;41.18
54455;BME280;40364;52.270;10.546;2023-01-28T07:47:37;101876.56;;;9.88;40.35
54455;BME280;40364;52.270;10.546;2023-01-28T07:50:07;101880.94;;;10.49;39.53
54455;BME280;40364;52.270;10.546;2023-01-28T07:52:35;101879.63;;;10.19;38.95
54455;BME280;40364;52.270;10.546;2023-01-28T07:55:09;101888.88;;;10.01;39.27
54455;BME280;40364;52.270;10.546;2023-01-28T07:57:36;101881.84;;;10.17;39.22
54455;BME280;40364;52.270;10.546;2023-01-28T08:00:03;101893.22;;;10.48;39.54
54455;BME280;40364;52.270;10.546;2023-01-28T08:02:30;101881.88;;;10.44;38.73
54455;BME280;40364;52.270;10.546;2023-01-28T08:04:57;101880.53;;;10.42;39.31
54455;BME280;40364;52.270;10.546;2023-01-28T08:07:28;101887.03;;;10.51;39.70
54455;BME280;40364;52.270;10.546;2023-01-28T08:09:54;101892.16;;;10.17;39.14
54455;BME280;40364;52.270;10.546;2023-01-28T08:12:21;101892.31;;;10.39;38.58
54455;BME280;40364;52.270;10.546;2023-01-28T08:14:48;101900.03;;;10.56;38.72
54455;BME280;40364;52.270;10.546;2023-01-28T08:17:15;101906.16;;;10.80;38.43
54455;BME280;40364;52.270;10.546;2023-01-28T08:19:42;101905.63;;;10.28;38.74
54455;BME280;40364;52.270;10.546;2023-01-28T08:22:09;101913.66;;;9.19;40.92
54455;BME280;40364;52.270;10.546;2023-01-28T08:24:37;101912.56;;;9.01;41.49
54455;BME280;40364;52.270;10.546;2023-01-28T08:27:04;101919.53;;;9.68;41.04
54455;BME280;40364;52.270;10.546;2023-01-28T08:29:31;101907.84;;;9.99;40.29
54455;BME280;40364;52.270;10.546;2023-01-28T08:31:58;101913.34;;;9.39;41.31
54455;BME280;40364;52.270;10.546;2023-01-28T08:34:25;101917.94;;;9.95;40.92
54455;BME280;40364;52.270;10.546;2023-01-28T08:36:51;101915.84;;;9.87;40.71
54455;BME280;40364;52.270;10.546;2023-01-28T08:39:18;101925.22;;;9.77;41.34
54455;BME280;40364;52.270;10.546;2023-01-28T08:41:46;101932.03;;;9.85;40.81
54455;BME280;40364;52.270;10.546;2023-01-28T08:44:16;101931.88;;;9.62;40.87
54455;BME280;40364;52.270;10.546;2023-01-28T08:46:42;101939.25;;;9.86;40.71
54455;BME280;40364;52.270;10.546;2023-01-28T08:49:09;101937.28;;;9.54;41.20
54455;BME280;40364;52.270;10.546;2023-01-28T08:51:41;101944.81;;;9.86;40.64
54455;BME280;40364;52.270;10.546;2023-01-28T08:54:13;101943.34;;;9.74;40.76
54455;BME280;40364;52.270;10.546;2023-01-28T08:56:40;101958.00;;;10.26;40.37
54455;BME280;40364;52.270;10.546;2023-01-28T08:59:10;101949.25;;;9.87;40.31
54455;BME280;40364;52.270;10.546;2023-01-28T09:01:37;101961.19;;;9.55;40.43
54455;BME280;40364;52.270;10.546;2023-01-28T09:04:04;101959.81;;;10.03;40.07
54455;BME280;40364;52.270;10.546;2023-01-28T09:06:31;101959.03;;;10.44;38.57
54455;BME280;40364;52.270;10.546;2023-01-28T09:08:58;101957.88;;;10.86;37.91
54455;BME280;40364;52.270;10.546;2023-01-28T09:11:25;101963.16;;;10.88;38.45
54455;BME280;40364;52.270;10.546;2023-01-28T09:13:52;101956.75;;;10.73;38.51
54455;BME280;40364;52.270;10.546;2023-01-28T09:16:20;101944.59;;;10.28;39.21
54455;BME280;40364;52.270;10.546;2023-01-28T09:18:46;101956.94;;;10.91;38.45
54455;BME280;40364;52.270;10.546;2023-01-28T09:21:13;101976.94;;;11.06;38.05
54455;BME280;40364;52.270;10.546;2023-01-28T09:23:40;101974.50;;;10.91;37.81
54455;BME280;40364;52.270;10.546;2023-01-28T09:26:06;101972.97;;;11.57;36.95
54455;BME280;40364;52.270;10.546;2023-01-28T09:28:34;101979.16;;;10.82;37.73
54455;BME280;40364;52.270;10.546;2023-01-28T09:31:03;101980.38;;;11.39;36.94
54455;BME280;40364;52.270;10.546;2023-01-28T09:33:32;101980.59;;;12.10;36.37
54455;BME280;40364;52.270;10.546;2023-01-28T09:35:59;101984.38;;;11.47;36.68
54455;BME280;40364;52.270;10.546;2023-01-28T09:38:26;101983.38;;;10.79;37.39
54455;BME280;40364;52.270;10.546;2023-01-28T09:40:54;101979.59;;;11.25;37.42
54455;BME280;40364;52.270;10.546;2023-01-28T09:43:40;101984.94;;;10.99;37.85
54455;BME280;40364;52.270;10.546;2023-01-28T09:46:12;101992.69;;;10.75;38.22
54455;BME280;40364;52.270;10.546;2023-01-28T09:48:43;102005.81;;;10.61;38.19
54455;BME280;40364;52.270;10.546;2023-01-28T09:51:23;102003.19;;;10.23;38.81
54455;BME280;40364;52.270;10.546;2023-01-28T09:53:54;102010.13;;;9.74;39.89
54455;BME280;40364;52.270;10.546;2023-01-28T09:56:25;102009.09;;;10.03;39.60
54455;BME280;40364;52.270;10.546;2023-01-28T09:58:53;102015.31;;;9.62;39.93
54455;BME280;40364;52.270;10.546;2023-01-28T10:01:34;102026.44;;;9.25;41.33
54455;BME280;40364;52.270;10.546;2023-01-28T10:04:15;102024.72;;;9.66;40.50
54455;BME280;40364;52.270;10.546;2023-01-28T10:06:53;102028.06;;;10.47;39.41
54455;BME280;40364;52.270;10.546;2023-01-28T10:09:33;102008.94;;;9.62;40.46
54455;BME280;40364;52.270;10.546;2023-01-28T10:12:30;102013.84;;;10.16;39.83
54455;BME280;40364;52.270;10.546;2023-01-28T10:15:09;102017.03;;;10.97;38.62
54455;BME280;40364;52.270;10.546;2023-01-28T10:17:44;102005.88;;;10.83;38.65
54455;BME280;40364;52.270;10.546;2023-01-28T10:20:20;102007.03;;;10.55;38.50
54455;BME280;40364;52.270;10.546;2023-01-28T10:22:54;102005.34;;;8.33;41.54
54455;BME280;40364;52.270;10.546;2023-01-28T10:25:23;101992.66;;;9.36;41.42
54455;BME280;40364;52.270;10.546;2023-01-28T10:27:51;101985.94;;;10.21;39.33
54455;BME280;40364;52.270;10.546;2023-01-28T10:30:19;101990.63;;;10.39;39.07
54455;BME280;40364;52.270;10.546;2023-01-28T10:32:51;101988.69;;;10.07;39.57
54455;BME280;40364;52.270;10.546;2023-01-28T10:35:20;101996.91;;;10.45;39.30
54455;BME280;40364;52.270;10.546;2023-01-28T10:37:49;101983.94;;;9.43;40.79
54455;BME280;40364;52.270;10.546;2023-01-28T10:40:18;101989.25;;;10.23;40.05
54455;BME280;40364;52.270;10.546;2023-01-28T10:42:45;101993.66;;;11.06;38.00
54455;BME280;40364;52.270;10.546;2023-01-28T10:45:18;101986.81;;;10.35;39.37
54455;BME280;40364;52.270;10.546;2023-01-28T10:47:49;101983.84;;;10.13;39.92
54455;BME280;40364;52.270;10.546;2023-01-28T10:50:23;101982.63;;;9.54;40.04
54455;BME280;40364;52.270;10.546;2023-01-28T10:52:54;101979.47;;;9.23;41.41
54455;BME280;40364;52.270;10.546;2023-01-28T10:55:22;101980.53;;;9.78;40.45
54455;BME280;40364;52.270;10.546;2023-01-28T10:57:49;101977.03;;;10.05;40.20
54455;BME280;40364;52.270;10.546;2023-01-28T11:00:23;101977.81;;;9.92;39.57
54455;BME280;40364;52.270;10.546;2023-01-28T11:02:50;101977.44;;;8.91;41.15
54455;BME280;40364;52.270;10.546;2023-01-28T11:05:18;101979.91;;;10.00;40.31
54455;BME280;40364;52.270;10.546;2023-01-28T11:10:29;101978.72;;;10.20;39.45
54455;BME280;40364;52.270;10.546;2023-01-28T11:12:57;101974.66;;;9.99;40.08
54455;BME280;40364;52.270;10.546;2023-01-28T11:15:24;101956.19;;;9.19;41.57
54455;BME280;40364;52.270;10.546;2023-01-28T11:17:55;101977.84;;;10.06;41.60
54455;BME280;40364;52.270;10.546;2023-01-28T11:20:26;101984.16;;;9.28;41.76
54455;BME280;40364;52.270;10.546;2023-01-28T11:22:54;101983.09;;;9.42;41.66
54455;BME280;40364;52.270;10.546;2023-01-28T11:25:29;101976.41;;;8.63;43.01
54455;BME280;40364;52.270;10.546;2023-01-28T11:28:01;101981.00;;;9.16;42.26
54455;BME280;40364;52.270;10.546;2023-01-28T11:33:32;101988.94;;;9.92;39.29
54455;BME280;40364;52.270;10.546;2023-01-28T11:36:11;102001.84;;;7.94;42.76
54455;BME280;40364;52.270;10.546;2023-01-28T11:38:47;101987.66;;;9.52;40.52
54455;BME280;40364;52.270;10.546;2023-01-28T11:41:16;101987.84;;;9.42;40.74
54455;BME280;40364;52.270;10.546;2023-01-28T11:43:43;101968.00;;;9.30;40.65
54455;BME280;40364;52.270;10.546;2023-01-28T11:46:24;101981.00;;;8.25;42.94
54455;BME280;40364;52.270;10.546;2023-01-28T11:49:02;101975.03;;;8.85;41.99
54455;BME280;40364;52.270;10.546;2023-01-28T11:51:37;101976.22;;;8.02;43.41
54455;BME280;40364;52.270;10.546;2023-01-28T11:54:24;101956.63;;;8.89;42.10
54455;BME280;40364;52.270;10.546;2023-01-28T11:57:21;101915.34;;;8.39;42.46
54455;BME280;40364;52.270;10.546;2023-01-28T12:00:18;101956.03;;;9.80;40.20
54455;BME280;40364;52.270;10.546;2023-01-28T12:03:22;101917.56;;;8.14;42.78
54455;BME280;40364;52.270;10.546;2023-01-28T12:09:16;101962.22;;;8.65;42.34
54455;BME280;40364;52.270;10.546;2023-01-28T12:12:07;101955.81;;;9.07;41.54
54455;BME280;40364;52.270;10.546;2023-01-28T12:14:56;101890.81;;;8.65;41.44
54455;BME280;40364;52.270;10.546;2023-01-28T12:17:38;101938.00;;;9.45;40.65
54455;BME280;40364;52.270;10.546;2023-01-28T12:20:14;101919.13;;;9.24;41.15
54455;BME280;40364;52.270;10.546;2023-01-28T12:23:02;101879.91;;;9.44;39.82
54455;BME280;40364;52.270;10.546;2023-01-28T12:25:41;101918.84;;;9.44;40.13
54455;BME280;40364;52.270;10.546;2023-01-28T12:28:25;101897.63;;;10.08;39.64
54455;BME280;40364;52.270;10.546;2023-01-28T12:31:26;101907.50;;;11.41;37.47
54455;BME280;40364;52.270;10.546;2023-01-28T12:34:45;101914.97;;;10.60;38.36
54455;BME280;40364;52.270;10.546;2023-01-28T12:37:21;101880.63;;;10.64;38.28
54455;BME280;40364;52.270;10.546;2023-01-28T12:40:02;101913.53;;;10.62;38.20
54455;BME280;40364;52.270;10.546;2023-01-28T12:42:53;101896.53;;;9.63;38.95
54455;BME280;40364;52.270;10.546;2023-01-28T12:45:32;101867.53;;;9.50;39.80
54455;BME280;40364;52.270;10.546;2023-01-28T12:48:11;101847.97;;;9.55;39.14
54455;BME280;40364;52.270;10.546;2023-01-28T12:50:43;101869.66;;;9.72;38.92
54455;BME280;40364;52.270;10.546;2023-01-28T12:53:25;101856.00;;;10.30;38.14
54455;BME280;40364;52.270;10.546;2023-01-28T12:56:03;101864.94;;;11.27;37.10
54455;BME280;40364;52.270;10.546;2023-01-28T12:58:39;101857.25;;;11.63;36.87
54455;BME280;40364;52.270;10.546;2023-01-28T13:01:19;101836.78;;;11.99;35.74
54455;BME280;40364;52.270;10.546;2023-01-28T13:03:56;101837.06;;;13.58;33.58
54455;BME280;40364;52.270;10.546;2023-01-28T13:06:56;101816.19;;;12.34;34.17
54455;BME280;40364;52.270;10.546;2023-01-28T13:09:27;101803.38;;;9.88;37.23
54455;BME280;40364;52.270;10.546;2023-01-28T13:11:56;101818.97;;;8.96;40.13
54455;BME280;40364;52.270;10.546;2023-01-28T13:14:27;101815.47;;;9.97;39.65